Airfield :
LOGIN :

Register | Disclaimer

   EN    FR    IT 

 










Legend :    VFR   Marginal VFR   IFR   Intensive IFR   Very Intensive IFR
Visi :
Ceiling :
>= 8 km
>= 3000ft
5 to 8 km
1000 to 3000 ft
1500m to 5 km
500 to 1000 ft
800 to 1500m
200 to 500 ft
< 800m
< 200 ft
Symbols :   Thunderstorms  Fog  Heavy snow  Heavy precipitations  Wind > 20 kt
SIGMETs :     Misc.  Thunderstorms  Icing  Turbulence  Mountain Waves  Volcanic Ashes







- Airport Elevation : 502 ft
- IATA code : ORK


EICK - Cork

CURRENT METAR :
  • 250630Z 11010KT 0300 R17/0350N R35/0300N FG BKN001 BKN002 12/11 Q1021 NOSIG

EXPIRED METARs :
  • 250600Z 10010KT 0400 R17/0450D R35/0450N FG BKN001 BKN002 12/11 Q1021 NOSIG
  • 250530Z 11010KT 0800 R17/1000U R35/1200U FG BKN001 BKN002 12/11 Q1021 TEMPO 0500
  • 250500Z 11010KT 0900 R17/1100N R35/1100N FG BKN001 BKN002 12/11 Q1021 TEMPO 0500
  • 250430Z 12010KT 0900 R17/1500D R35/1600D FG BKN001 BKN002 12/11 Q1021 TEMPO 0500
  • 250400Z 11010KT 9999 SCT001 BKN002 12/12 Q1021 TEMPO 2000 BR BKN001

TAF TAF EICK
Valid from the 25 at 06:00 until the 26 at 06:00 UTC


250500Z 2506/2606 12007KT 1200 BR SCT001 BKN002
TEMPO 2506/2510 0500 FG BKN001
PROB40
TEMPO 2506/2510 9999 SCT002 BKN003
BECMG 2510/2513 12012KT 9999 NSW SCT010
TEMPO 2513/2516 BKN010
BECMG 2521/2524 11007KT
No reported NOTAMs for that airfield.



MET'MAP, your aeronautical weather chart ! - Copyright ORBIFLY December 2007 - Disclaimer

ORBIFLY MET'MAP TEAM :

Programming & Development : Alexandra Zaïnal
Concept & Development : Baudouin d'Aumeries
Co-Development & Prog : Marc-Olivier Méhu
Technical & hardware support : Manuel Goepfert

Contact : metmap@orbifly.com




SOURCES & CREDITS :

   NOAA